createdAt,value
2023-03-23T15:59:12.925Z,16.37
2023-03-23T16:01:58.486Z,15.60
2023-03-23T16:04:46.289Z,19.73
2023-03-23T16:07:34.018Z,15.43
2023-03-23T16:10:23.745Z,17.90
2023-03-23T16:13:09.256Z,14.70
2023-03-23T16:15:54.551Z,20.07
2023-03-23T16:18:39.793Z,19.10
2023-03-23T16:21:25.526Z,17.30
2023-03-23T16:24:11.479Z,13.73
2023-03-23T16:26:56.927Z,13.37
2023-03-23T16:30:00.377Z,12.60
2023-03-23T16:32:47.959Z,17.30
2023-03-23T16:35:33.421Z,25.80
2023-03-23T16:38:19.088Z,26.33
2023-03-23T16:41:04.603Z,21.97
2023-03-23T16:43:50.242Z,30.67
2023-03-23T16:46:35.523Z,41.77
2023-03-23T16:49:20.769Z,43.97
2023-03-23T16:52:06.142Z,60.93
2023-03-23T16:54:51.418Z,51.73
2023-03-23T16:57:38.241Z,47.43
2023-03-23T17:00:25.261Z,45.93
2023-03-23T17:03:11.341Z,41.90
2023-03-23T17:05:59.838Z,41.27
2023-03-23T17:08:44.933Z,54.00
2023-03-23T17:11:30.586Z,41.20
2023-03-23T17:14:16.283Z,38.90
2023-03-23T17:17:01.817Z,46.73
2023-03-23T17:19:47.172Z,39.27
2023-03-23T17:22:32.687Z,36.70
2023-03-23T17:25:18.168Z,31.10
2023-03-23T17:28:05.788Z,35.80
2023-03-23T17:30:53.393Z,34.47
2023-03-23T17:33:38.477Z,42.93
2023-03-23T17:36:24.458Z,41.03
2023-03-23T17:39:10.253Z,42.70
2023-03-23T17:41:55.543Z,36.47
2023-03-23T17:44:41.903Z,33.13
2023-03-23T17:47:27.616Z,54.83
2023-03-23T17:50:13.353Z,50.17
2023-03-23T17:53:00.494Z,69.40
2023-03-23T17:55:46.442Z,120.87
2023-03-23T17:58:32.735Z,146.20
2023-03-23T18:01:18.313Z,150.43
2023-03-23T18:04:05.215Z,151.97
2023-03-23T18:06:50.827Z,150.53
2023-03-23T18:09:36.302Z,88.03
2023-03-23T18:12:21.600Z,94.93
2023-03-23T18:15:07.895Z,74.97
2023-03-23T18:17:53.087Z,62.13
2023-03-23T18:20:38.597Z,77.57
2023-03-23T18:23:23.872Z,74.10
2023-03-23T18:26:12.732Z,79.60
2023-03-23T18:28:58.696Z,78.13
2023-03-23T18:31:44.352Z,66.87
2023-03-23T18:34:31.332Z,72.93
2023-03-23T18:37:17.624Z,63.90
2023-03-23T18:43:46.495Z,77.33
2023-03-23T18:46:32.004Z,60.10
2023-03-23T18:49:17.810Z,52.67
2023-03-23T18:52:03.489Z,52.07
2023-03-23T18:54:49.147Z,47.93
2023-03-23T18:57:34.545Z,47.67
2023-03-23T19:00:21.638Z,46.60
2023-03-23T19:03:11.116Z,47.80
2023-03-23T19:06:00.337Z,44.73
2023-03-23T19:08:47.505Z,39.97
2023-03-23T19:11:32.928Z,38.47
2023-03-23T19:14:19.571Z,39.27
2023-03-23T19:17:05.066Z,42.07
2023-03-23T19:19:53.993Z,33.47
2023-03-23T19:22:40.618Z,32.90
2023-03-23T19:25:27.155Z,37.60
2023-03-23T19:29:03.311Z,33.60
2023-03-23T19:31:21.798Z,30.13
2023-03-23T19:34:08.751Z,28.53
2023-03-23T19:37:04.150Z,28.17
2023-03-23T19:40:09.136Z,31.00
2023-03-23T19:43:05.954Z,30.70
2023-03-23T19:45:52.077Z,34.70
2023-03-23T19:48:39.745Z,26.43
2023-03-23T19:51:27.597Z,29.23
2023-03-23T19:54:14.072Z,27.80
2023-03-23T19:57:01.245Z,26.30
2023-03-23T19:59:47.165Z,24.60
2023-03-23T20:02:33.164Z,24.83
2023-03-23T20:05:18.601Z,23.43
2023-03-23T20:08:04.938Z,23.27
2023-03-23T20:10:50.259Z,24.40
2023-03-23T20:13:35.897Z,20.03
2023-03-23T20:16:21.841Z,20.23
2023-03-23T20:19:08.749Z,19.20
2023-03-23T20:21:54.165Z,17.97
2023-03-23T20:24:40.099Z,17.73
2023-03-23T20:27:25.951Z,18.60
2023-03-23T20:30:12.320Z,18.07
2023-03-23T20:33:00.785Z,17.70
2023-03-23T20:35:46.397Z,16.37
2023-03-23T20:38:35.365Z,18.10
2023-03-23T20:41:20.720Z,16.73
2023-03-23T20:44:14.071Z,16.70
2023-03-23T20:47:02.622Z,17.63
2023-03-23T20:49:52.986Z,14.60
2023-03-23T20:52:41.047Z,16.70
2023-03-23T20:55:27.601Z,13.17
2023-03-23T20:58:14.593Z,13.87
2023-03-23T21:01:03.014Z,14.57
2023-03-23T21:03:52.098Z,12.43
2023-03-23T21:06:37.347Z,15.17
2023-03-23T21:09:23.267Z,10.57
2023-03-23T21:12:10.282Z,11.80
2023-03-23T21:14:55.835Z,13.20
2023-03-23T21:17:41.542Z,11.27
2023-03-23T21:20:27.172Z,10.67
2023-03-23T21:23:14.728Z,10.03
2023-03-23T21:26:02.785Z,10.93
2023-03-23T21:28:50.761Z,12.57
2023-03-23T21:31:37.326Z,11.43
2023-03-23T21:34:22.894Z,10.77
2023-03-23T21:37:08.341Z,11.73
2023-03-23T21:39:53.432Z,10.83
2023-03-23T21:42:42.258Z,11.73
2023-03-23T21:45:28.959Z,11.03
2023-03-23T21:48:15.430Z,13.97
2023-03-23T21:51:13.373Z,11.40
2023-03-23T21:53:59.031Z,13.83
2023-03-23T21:56:44.459Z,12.13
2023-03-23T21:59:29.702Z,13.97
2023-03-23T22:02:15.833Z,10.80
2023-03-23T22:05:01.423Z,10.77
2023-03-23T22:07:47.786Z,11.97
2023-03-23T22:10:33.328Z,11.17
2023-03-23T22:13:19.252Z,10.33
2023-03-23T22:16:07.614Z,10.80
2023-03-23T22:18:55.236Z,9.77
2023-03-23T22:21:41.186Z,8.97
2023-03-23T22:24:27.161Z,10.70
2023-03-23T22:27:12.609Z,9.07
2023-03-23T22:29:57.842Z,11.43
2023-03-23T22:32:43.362Z,12.50
2023-03-23T22:35:28.989Z,10.70
2023-03-23T22:38:14.658Z,10.00
2023-03-23T22:41:02.346Z,10.47
2023-03-23T22:43:48.183Z,8.63
2023-03-23T22:46:33.992Z,10.73
2023-03-23T22:49:19.207Z,10.93
2023-03-23T22:52:04.838Z,8.33
2023-03-23T22:54:50.392Z,8.00
2023-03-23T22:57:36.037Z,10.33
2023-03-23T23:00:21.801Z,9.23
2023-03-23T23:03:07.671Z,10.80
2023-03-23T23:05:54.718Z,8.73
2023-03-23T23:08:41.368Z,11.60
2023-03-23T23:11:27.093Z,8.20
2023-03-23T23:14:12.750Z,8.63
2023-03-23T23:16:58.362Z,11.40
2023-03-23T23:19:43.681Z,9.30
2023-03-23T23:22:29.145Z,8.97
2023-03-23T23:25:14.472Z,9.13
2023-03-23T23:28:01.677Z,7.20
2023-03-23T23:30:48.438Z,8.43
2023-03-23T23:33:34.164Z,9.07
2023-03-23T23:36:21.224Z,7.70
2023-03-23T23:39:06.893Z,9.63
2023-03-23T23:41:52.129Z,9.40
2023-03-23T23:44:38.548Z,9.33
2023-03-23T23:47:23.855Z,7.10
2023-03-23T23:50:12.170Z,11.13
2023-03-23T23:52:58.756Z,8.13
2023-03-23T23:55:44.103Z,8.60
2023-03-23T23:58:29.857Z,8.67
